sensor_id;sensor_type;location;lat;lon;timestamp;pressure;altitude;pressure_sealevel;temperature;humidity
49949;BME280;35840;45.982;8.890;2024-01-30T00:00:03;100270.31;;;2.14;69.73
49949;BME280;35840;45.982;8.890;2024-01-30T00:02:32;100271.09;;;2.04;69.50
49949;BME280;35840;45.982;8.890;2024-01-30T00:04:59;100277.88;;;2.05;70.70
49949;BME280;35840;45.982;8.890;2024-01-30T00:07:26;100281.28;;;2.09;70.72
49949;BME280;35840;45.982;8.890;2024-01-30T00:09:53;100266.06;;;2.07;70.24
49949;BME280;35840;45.982;8.890;2024-01-30T00:12:19;100275.41;;;2.16;69.22
49949;BME280;35840;45.982;8.890;2024-01-30T00:14:47;100268.63;;;2.18;68.95
49949;BME280;35840;45.982;8.890;2024-01-30T00:17:16;100279.63;;;2.17;69.48
49949;BME280;35840;45.982;8.890;2024-01-30T00:19:43;100284.66;;;2.03;70.02
49949;BME280;35840;45.982;8.890;2024-01-30T00:22:10;100282.09;;;2.01;69.89
49949;BME280;35840;45.982;8.890;2024-01-30T00:24:37;100282.06;;;2.00;70.20
49949;BME280;35840;45.982;8.890;2024-01-30T00:27:04;100271.88;;;1.89;71.35
49949;BME280;35840;45.982;8.890;2024-01-30T00:29:31;100279.53;;;1.98;70.50
49949;BME280;35840;45.982;8.890;2024-01-30T00:32:00;100271.09;;;2.05;69.86
49949;BME280;35840;45.982;8.890;2024-01-30T00:34:27;100277.88;;;2.08;69.80
49949;BME280;35840;45.982;8.890;2024-01-30T00:36:54;100279.59;;;2.06;69.71
49949;BME280;35840;45.982;8.890;2024-01-30T00:39:21;100256.69;;;1.95;70.65
49949;BME280;35840;45.982;8.890;2024-01-30T00:41:48;100277.84;;;1.96;70.25
49949;BME280;35840;45.982;8.890;2024-01-30T00:44:14;100265.94;;;1.88;70.67
49949;BME280;35840;45.982;8.890;2024-01-30T00:46:41;100270.25;;;1.99;70.33
49949;BME280;35840;45.982;8.890;2024-01-30T00:49:08;100275.31;;;2.02;69.33
49949;BME280;35840;45.982;8.890;2024-01-30T00:51:35;100273.59;;;1.96;69.73
49949;BME280;35840;45.982;8.890;2024-01-30T00:54:03;100260.84;;;1.84;70.97
49949;BME280;35840;45.982;8.890;2024-01-30T00:56:29;100278.66;;;1.92;70.33
49949;BME280;35840;45.982;8.890;2024-01-30T00:58:57;100268.47;;;1.85;70.23
49949;BME280;35840;45.982;8.890;2024-01-30T01:01:24;100271.78;;;1.77;70.58
49949;BME280;35840;45.982;8.890;2024-01-30T01:03:51;100270.09;;;1.74;70.72
49949;BME280;35840;45.982;8.890;2024-01-30T01:06:18;100272.63;;;1.77;70.95
49949;BME280;35840;45.982;8.890;2024-01-30T01:08:44;100278.59;;;1.85;70.86
49949;BME280;35840;45.982;8.890;2024-01-30T01:11:11;100254.91;;;1.79;70.55
49949;BME280;35840;45.982;8.890;2024-01-30T01:13:38;100271.88;;;1.87;70.42
49949;BME280;35840;45.982;8.890;2024-01-30T01:16:05;100273.47;;;1.73;70.34
49949;BME280;35840;45.982;8.890;2024-01-30T01:18:32;100270.06;;;1.69;70.96
49949;BME280;35840;45.982;8.890;2024-01-30T01:20:59;100287.81;;;1.71;71.17
49949;BME280;35840;45.982;8.890;2024-01-30T01:23:26;100270.06;;;1.72;70.73
49949;BME280;35840;45.982;8.890;2024-01-30T01:25:53;100264.16;;;1.72;71.18
49949;BME280;35840;45.982;8.890;2024-01-30T01:28:23;100274.28;;;1.67;71.17
49949;BME280;35840;45.982;8.890;2024-01-30T01:30:50;100264.97;;;1.63;71.54
49949;BME280;35840;45.982;8.890;2024-01-30T01:33:18;100281.91;;;1.69;71.81
49949;BME280;35840;45.982;8.890;2024-01-30T01:35:45;100254.75;;;1.57;70.83
49949;BME280;35840;45.982;8.890;2024-01-30T01:38:11;100279.31;;;1.63;71.22
49949;BME280;35840;45.982;8.890;2024-01-30T01:40:38;100275.94;;;1.64;71.38
49949;BME280;35840;45.982;8.890;2024-01-30T01:43:06;100276.75;;;1.63;70.96
49949;BME280;35840;45.982;8.890;2024-01-30T01:45:33;100279.34;;;1.67;70.55
49949;BME280;35840;45.982;8.890;2024-01-30T01:48:00;100273.38;;;1.62;70.55
49949;BME280;35840;45.982;8.890;2024-01-30T01:50:27;100270.84;;;1.61;71.74
49949;BME280;35840;45.982;8.890;2024-01-30T01:52:55;100269.97;;;1.60;71.30
49949;BME280;35840;45.982;8.890;2024-01-30T01:55:22;100274.22;;;1.60;71.38
49949;BME280;35840;45.982;8.890;2024-01-30T01:57:52;100281.81;;;1.60;70.94
49949;BME280;35840;45.982;8.890;2024-01-30T02:00:20;100275.00;;;1.52;71.65
49949;BME280;35840;45.982;8.890;2024-01-30T02:02:47;100266.59;;;1.57;71.95
49949;BME280;35840;45.982;8.890;2024-01-30T02:05:15;100270.84;;;1.59;71.48
49949;BME280;35840;45.982;8.890;2024-01-30T02:07:43;100273.38;;;1.62;70.95
49949;BME280;35840;45.982;8.890;2024-01-30T02:10:10;100276.75;;;1.63;70.77
49949;BME280;35840;45.982;8.890;2024-01-30T02:12:37;100286.97;;;1.72;70.43
49949;BME280;35840;45.982;8.890;2024-01-30T02:15:05;100284.47;;;1.75;70.24
49949;BME280;35840;45.982;8.890;2024-01-30T02:17:33;100288.63;;;1.70;70.62
49949;BME280;35840;45.982;8.890;2024-01-30T02:20:01;100276.84;;;1.72;70.48
49949;BME280;35840;45.982;8.890;2024-01-30T02:22:29;100285.34;;;1.80;69.97
49949;BME280;35840;45.982;8.890;2024-01-30T02:24:56;100282.75;;;1.71;70.49
49949;BME280;35840;45.982;8.890;2024-01-30T02:27:23;100277.56;;;1.59;70.81
49949;BME280;35840;45.982;8.890;2024-01-30T02:29:49;100274.19;;;1.53;71.60
49949;BME280;35840;45.982;8.890;2024-01-30T02:32:16;100276.66;;;1.49;70.88
49949;BME280;35840;45.982;8.890;2024-01-30T02:34:43;100272.38;;;1.40;70.90
49949;BME280;35840;45.982;8.890;2024-01-30T02:37:10;100280.03;;;1.45;71.25
49949;BME280;35840;45.982;8.890;2024-01-30T02:39:37;100275.81;;;1.48;71.35
49949;BME280;35840;45.982;8.890;2024-01-30T02:42:04;100256.31;;;1.36;70.94
49949;BME280;35840;45.982;8.890;2024-01-30T02:44:31;100277.44;;;1.40;71.36
49949;BME280;35840;45.982;8.890;2024-01-30T02:46:59;100284.19;;;1.38;71.31
49949;BME280;35840;45.982;8.890;2024-01-30T02:49:26;100278.31;;;1.41;71.29
49949;BME280;35840;45.982;8.890;2024-01-30T02:51:53;100277.47;;;1.43;70.35
49949;BME280;35840;45.982;8.890;2024-01-30T02:54:20;100271.53;;;1.38;70.09
49949;BME280;35840;45.982;8.890;2024-01-30T02:56:47;100276.59;;;1.36;70.71
49949;BME280;35840;45.982;8.890;2024-01-30T02:59:15;100276.50;;;1.30;71.08
49949;BME280;35840;45.982;8.890;2024-01-30T03:01:45;100279.00;;;1.26;71.25
49949;BME280;35840;45.982;8.890;2024-01-30T03:04:13;100267.16;;;1.22;71.40
49949;BME280;35840;45.982;8.890;2024-01-30T03:06:45;100275.66;;;1.25;71.46
49949;BME280;35840;45.982;8.890;2024-01-30T03:09:12;100284.91;;;1.25;71.40
49949;BME280;35840;45.982;8.890;2024-01-30T03:11:40;100275.56;;;1.17;71.17
49949;BME280;35840;45.982;8.890;2024-01-30T03:14:07;100289.00;;;1.10;71.76
49949;BME280;35840;45.982;8.890;2024-01-30T03:16:34;100274.69;;;1.14;72.03
49949;BME280;35840;45.982;8.890;2024-01-30T03:19:01;100285.69;;;1.16;71.96
49949;BME280;35840;45.982;8.890;2024-01-30T03:21:30;100277.25;;;1.15;71.81
49949;BME280;35840;45.982;8.890;2024-01-30T03:23:57;100278.09;;;1.16;71.60
49949;BME280;35840;45.982;8.890;2024-01-30T03:26:23;100279.91;;;1.29;71.54
49949;BME280;35840;45.982;8.890;2024-01-30T03:28:50;100284.97;;;1.28;71.33
49949;BME280;35840;45.982;8.890;2024-01-30T03:31:18;100284.88;;;1.18;71.55
49949;BME280;35840;45.982;8.890;2024-01-30T03:33:45;100269.53;;;1.05;72.02
49949;BME280;35840;45.982;8.890;2024-01-30T03:36:11;100248.41;;;1.01;72.30
49949;BME280;35840;45.982;8.890;2024-01-30T03:38:38;100273.03;;;1.19;72.18
49949;BME280;35840;45.982;8.890;2024-01-30T03:41:10;100267.06;;;1.09;72.14
49949;BME280;35840;45.982;8.890;2024-01-30T03:43:37;100269.56;;;1.08;72.15
49949;BME280;35840;45.982;8.890;2024-01-30T03:46:04;100273.88;;;1.15;71.70
49949;BME280;35840;45.982;8.890;2024-01-30T03:48:31;100272.19;;;1.15;72.12
49949;BME280;35840;45.982;8.890;2024-01-30T03:50:57;100261.13;;;1.09;72.32
49949;BME280;35840;45.982;8.890;2024-01-30T03:53:24;100278.09;;;1.16;71.82
49949;BME280;35840;45.982;8.890;2024-01-30T03:55:52;100263.69;;;1.12;71.42
49949;BME280;35840;45.982;8.890;2024-01-30T03:58:18;100252.69;;;1.07;70.92
49949;BME280;35840;45.982;8.890;2024-01-30T04:00:45;100272.19;;;1.17;71.07
49949;BME280;35840;45.982;8.890;2024-01-30T04:03:12;100247.53;;;0.97;71.64
49949;BME280;35840;45.982;8.890;2024-01-30T04:05:41;100261.91;;;0.98;72.20
49949;BME280;35840;45.982;8.890;2024-01-30T04:08:09;100276.19;;;0.95;72.99
49949;BME280;35840;45.982;8.890;2024-01-30T04:10:35;100265.25;;;0.99;73.17
49949;BME280;35840;45.982;8.890;2024-01-30T04:13:02;100261.91;;;1.01;72.25
49949;BME280;35840;45.982;8.890;2024-01-30T04:15:29;100264.47;;;1.06;71.61
49949;BME280;35840;45.982;8.890;2024-01-30T04:17:59;100255.16;;;1.02;71.16
49949;BME280;35840;45.982;8.890;2024-01-30T04:20:26;100259.34;;;0.98;71.64
49949;BME280;35840;45.982;8.890;2024-01-30T04:22:53;100243.19;;;0.82;71.54
49949;BME280;35840;45.982;8.890;2024-01-30T04:25:20;100257.56;;;0.87;72.31
49949;BME280;35840;45.982;8.890;2024-01-30T04:27:47;100257.59;;;0.88;72.56
49949;BME280;35840;45.982;8.890;2024-01-30T04:30:14;100257.63;;;0.94;72.86
49949;BME280;35840;45.982;8.890;2024-01-30T04:32:41;100262.66;;;0.91;72.98
49949;BME280;35840;45.982;8.890;2024-01-30T04:35:08;100253.28;;;0.81;72.75
49949;BME280;35840;45.982;8.890;2024-01-30T04:37:39;100260.88;;;0.81;73.08
49949;BME280;35840;45.982;8.890;2024-01-30T04:40:06;100265.06;;;0.77;73.38
49949;BME280;35840;45.982;8.890;2024-01-30T04:42:33;100242.25;;;0.73;72.72
49949;BME280;35840;45.982;8.890;2024-01-30T04:45:00;100256.63;;;0.75;73.14
49949;BME280;35840;45.982;8.890;2024-01-30T04:47:26;100257.50;;;0.82;72.60
49949;BME280;35840;45.982;8.890;2024-01-30T04:49:53;100257.50;;;0.83;72.62
49949;BME280;35840;45.982;8.890;2024-01-30T04:52:20;100260.03;;;0.83;72.58
49949;BME280;35840;45.982;8.890;2024-01-30T04:54:47;100259.19;;;0.80;72.97
49949;BME280;35840;45.982;8.890;2024-01-30T04:57:14;100252.38;;;0.76;72.59
49949;BME280;35840;45.982;8.890;2024-01-30T04:59:41;100255.78;;;0.79;72.47
49949;BME280;35840;45.982;8.890;2024-01-30T05:02:07;100256.66;;;0.81;71.75
49949;BME280;35840;45.982;8.890;2024-01-30T05:04:35;100260.84;;;0.79;72.61
49949;BME280;35840;45.982;8.890;2024-01-30T05:07:03;100252.38;;;0.76;72.66
49949;BME280;35840;45.982;8.890;2024-01-30T05:09:30;100255.72;;;0.72;72.56
49949;BME280;35840;45.982;8.890;2024-01-30T05:11:56;100264.13;;;0.71;73.21
49949;BME280;35840;45.982;8.890;2024-01-30T05:14:24;100259.84;;;0.65;73.21
49949;BME280;35840;45.982;8.890;2024-01-30T05:16:51;100265.81;;;0.68;73.58
49949;BME280;35840;45.982;8.890;2024-01-30T05:19:17;100261.59;;;0.69;73.29
49949;BME280;35840;45.982;8.890;2024-01-30T05:21:44;100267.47;;;0.66;73.50
49949;BME280;35840;45.982;8.890;2024-01-30T05:24:11;100257.41;;;0.70;73.72
49949;BME280;35840;45.982;8.890;2024-01-30T05:26:39;100248.88;;;0.63;73.71
49949;BME280;35840;45.982;8.890;2024-01-30T05:29:06;100266.69;;;0.72;72.98
49949;BME280;35840;45.982;8.890;2024-01-30T05:31:34;100258.22;;;0.68;72.76
49949;BME280;35840;45.982;8.890;2024-01-30T05:34:01;100247.97;;;0.58;73.62
49949;BME280;35840;45.982;8.890;2024-01-30T05:36:28;100256.47;;;0.63;73.20
49949;BME280;35840;45.982;8.890;2024-01-30T05:38:56;100270.91;;;0.73;72.05
49949;BME280;35840;45.982;8.890;2024-01-30T05:41:23;100256.53;;;0.69;72.41
49949;BME280;35840;45.982;8.890;2024-01-30T05:43:49;100258.97;;;0.60;73.56
49949;BME280;35840;45.982;8.890;2024-01-30T05:46:17;100268.22;;;0.58;73.88
49949;BME280;35840;45.982;8.890;2024-01-30T05:48:47;100255.56;;;0.59;73.73
49949;BME280;35840;45.982;8.890;2024-01-30T05:51:14;100262.41;;;0.66;73.51
49949;BME280;35840;45.982;8.890;2024-01-30T05:53:41;100264.09;;;0.64;72.25
49949;BME280;35840;45.982;8.890;2024-01-30T05:56:08;100263.19;;;0.61;72.50
49949;BME280;35840;45.982;8.890;2024-01-30T05:58:35;100252.06;;;0.45;73.28
49949;BME280;35840;45.982;8.890;2024-01-30T06:01:07;100277.53;;;0.59;72.71
49949;BME280;35840;45.982;8.890;2024-01-30T06:03:35;100270.75;;;0.59;72.01
49949;BME280;35840;45.982;8.890;2024-01-30T06:06:02;100265.69;;;0.56;72.59
49949;BME280;35840;45.982;8.890;2024-01-30T06:08:30;100263.09;;;0.50;72.39
49949;BME280;35840;45.982;8.890;2024-01-30T06:10:56;100263.91;;;0.47;73.62
49949;BME280;35840;45.982;8.890;2024-01-30T06:13:23;100269.78;;;0.46;73.42
49949;BME280;35840;45.982;8.890;2024-01-30T06:15:50;100268.91;;;0.41;73.88
49949;BME280;35840;45.982;8.890;2024-01-30T06:18:17;100265.53;;;0.44;73.39
49949;BME280;35840;45.982;8.890;2024-01-30T06:20:44;100269.78;;;0.48;73.05
49949;BME280;35840;45.982;8.890;2024-01-30T06:23:11;100269.81;;;0.49;72.85
49949;BME280;35840;45.982;8.890;2024-01-30T06:25:39;100274.84;;;0.48;72.82
49949;BME280;35840;45.982;8.890;2024-01-30T06:28:06;100269.75;;;0.43;73.46
49949;BME280;35840;45.982;8.890;2024-01-30T06:30:33;100266.38;;;0.43;73.14
49949;BME280;35840;45.982;8.890;2024-01-30T06:32:59;100269.72;;;0.40;73.15
49949;BME280;35840;45.982;8.890;2024-01-30T06:35:26;100259.47;;;0.29;73.40
49949;BME280;35840;45.982;8.890;2024-01-30T06:37:55;100273.00;;;0.33;74.10
49949;BME280;35840;45.982;8.890;2024-01-30T06:40:22;100273.00;;;0.31;73.68
49949;BME280;35840;45.982;8.890;2024-01-30T06:42:49;100273.75;;;0.24;74.65
49949;BME280;35840;45.982;8.890;2024-01-30T06:45:16;100247.41;;;0.11;75.04
49949;BME280;35840;45.982;8.890;2024-01-30T06:47:43;100272.16;;;0.34;74.68
49949;BME280;35840;45.982;8.890;2024-01-30T06:50:10;100277.22;;;0.34;74.49
49949;BME280;35840;45.982;8.890;2024-01-30T06:52:37;100278.88;;;0.30;74.46
49949;BME280;35840;45.982;8.890;2024-01-30T06:55:04;100277.19;;;0.31;74.24
49949;BME280;35840;45.982;8.890;2024-01-30T06:57:31;100272.03;;;0.22;74.85
49949;BME280;35840;45.982;8.890;2024-01-30T06:59:58;100278.06;;;0.31;74.86
49949;BME280;35840;45.982;8.890;2024-01-30T07:02:25;100277.28;;;0.37;74.59
49949;BME280;35840;45.982;8.890;2024-01-30T07:04:52;100278.16;;;0.42;74.24
49949;BME280;35840;45.982;8.890;2024-01-30T07:07:19;100267.97;;;0.36;74.47
49949;BME280;35840;45.982;8.890;2024-01-30T07:09:46;100276.38;;;0.35;74.60
49949;BME280;35840;45.982;8.890;2024-01-30T07:12:14;100284.06;;;0.41;75.50
49949;BME280;35840;45.982;8.890;2024-01-30T07:14:41;100279.00;;;0.41;75.58
49949;BME280;35840;45.982;8.890;2024-01-30T07:17:07;100278.94;;;0.38;74.83
49949;BME280;35840;45.982;8.890;2024-01-30T07:19:34;100284.88;;;0.39;75.21
49949;BME280;35840;45.982;8.890;2024-01-30T07:22:01;100288.28;;;0.42;76.17
49949;BME280;35840;45.982;8.890;2024-01-30T07:24:28;100294.25;;;0.47;76.21
49949;BME280;35840;45.982;8.890;2024-01-30T07:26:55;100286.66;;;0.46;75.12
49949;BME280;35840;45.982;8.890;2024-01-30T07:29:22;100285.72;;;0.41;76.00
49949;BME280;35840;45.982;8.890;2024-01-30T07:31:48;100285.84;;;0.48;75.81
49949;BME280;35840;45.982;8.890;2024-01-30T07:34:15;100287.53;;;0.49;75.28
49949;BME280;35840;45.982;8.890;2024-01-30T07:36:42;100293.50;;;0.55;75.59
49949;BME280;35840;45.982;8.890;2024-01-30T07:39:09;100290.13;;;0.56;76.23
49949;BME280;35840;45.982;8.890;2024-01-30T07:41:36;100290.16;;;0.57;77.26
49949;BME280;35840;45.982;8.890;2024-01-30T07:44:03;100296.06;;;0.59;76.95
49949;BME280;35840;45.982;8.890;2024-01-30T07:46:30;100291.91;;;0.61;76.11
49949;BME280;35840;45.982;8.890;2024-01-30T07:48:58;100297.00;;;0.67;76.25
49949;BME280;35840;45.982;8.890;2024-01-30T07:51:25;100299.59;;;0.72;76.01
49949;BME280;35840;45.982;8.890;2024-01-30T07:53:52;100302.06;;;0.66;76.74
49949;BME280;35840;45.982;8.890;2024-01-30T07:56:18;100309.66;;;0.67;77.10
49949;BME280;35840;45.982;8.890;2024-01-30T07:58:45;100307.91;;;0.62;77.61
49949;BME280;35840;45.982;8.890;2024-01-30T08:01:12;100273.19;;;0.48;77.75
49949;BME280;35840;45.982;8.890;2024-01-30T08:03:39;100307.31;;;0.83;77.17
49949;BME280;35840;45.982;8.890;2024-01-30T08:06:08;100306.91;;;0.46;80.05
49949;BME280;35840;45.982;8.890;2024-01-30T08:08:35;100313.00;;;0.63;79.15
49949;BME280;35840;45.982;8.890;2024-01-30T08:11:04;100317.31;;;0.72;79.09
49949;BME280;35840;45.982;8.890;2024-01-30T08:13:31;100322.47;;;0.78;79.42
49949;BME280;35840;45.982;8.890;2024-01-30T08:15:58;100312.31;;;0.77;79.59
49949;BME280;35840;45.982;8.890;2024-01-30T08:18:25;100318.22;;;0.77;79.57
49949;BME280;35840;45.982;8.890;2024-01-30T08:20:53;100313.19;;;0.80;79.86
49949;BME280;35840;45.982;8.890;2024-01-30T08:23:19;100299.78;;;0.89;80.10
49949;BME280;35840;45.982;8.890;2024-01-30T08:25:46;100316.72;;;0.96;79.53
49949;BME280;35840;45.982;8.890;2024-01-30T08:28:13;100316.78;;;0.99;79.76
49949;BME280;35840;45.982;8.890;2024-01-30T08:30:42;100313.38;;;0.97;80.10
49949;BME280;35840;45.982;8.890;2024-01-30T08:33:09;100309.16;;;0.98;80.99
49949;BME280;35840;45.982;8.890;2024-01-30T08:35:36;100310.06;;;1.05;81.26
49949;BME280;35840;45.982;8.890;2024-01-30T08:38:03;100305.88;;;1.05;81.27
49949;BME280;35840;45.982;8.890;2024-01-30T08:40:30;100312.69;;;1.14;80.95
49949;BME280;35840;45.982;8.890;2024-01-30T08:42:57;100312.72;;;1.15;81.69
49949;BME280;35840;45.982;8.890;2024-01-30T08:45:24;100300.00;;;1.09;81.85
49949;BME280;35840;45.982;8.890;2024-01-30T08:47:51;100304.31;;;1.21;82.56
49949;BME280;35840;45.982;8.890;2024-01-30T08:50:18;100307.75;;;1.28;82.56
49949;BME280;35840;45.982;8.890;2024-01-30T08:52:45;100293.38;;;1.27;82.47
49949;BME280;35840;45.982;8.890;2024-01-30T08:55:14;100301.09;;;1.39;82.38
49949;BME280;35840;45.982;8.890;2024-01-30T08:57:41;100307.94;;;1.49;81.87
49949;BME280;35840;45.982;8.890;2024-01-30T09:00:08;100307.19;;;1.63;80.77
49949;BME280;35840;45.982;8.890;2024-01-30T09:02:36;100308.97;;;1.75;80.37
49949;BME280;35840;45.982;8.890;2024-01-30T09:05:04;100306.47;;;1.82;79.90
49949;BME280;35840;45.982;8.890;2024-01-30T09:07:30;100301.50;;;1.92;79.82
49949;BME280;35840;45.982;8.890;2024-01-30T09:09:58;100296.44;;;1.98;78.88
49949;BME280;35840;45.982;8.890;2024-01-30T09:12:25;100304.97;;;2.08;78.53
49949;BME280;35840;45.982;8.890;2024-01-30T09:14:51;100307.50;;;2.09;78.26
49949;BME280;35840;45.982;8.890;2024-01-30T09:17:18;100299.91;;;2.14;77.90
49949;BME280;35840;45.982;8.890;2024-01-30T09:19:46;100301.63;;;2.19;77.68
49949;BME280;35840;45.982;8.890;2024-01-30T09:22:13;100297.41;;;2.18;77.71
49949;BME280;35840;45.982;8.890;2024-01-30T09:24:40;100299.16;;;2.27;77.11
49949;BME280;35840;45.982;8.890;2024-01-30T09:27:07;100293.22;;;2.28;76.94
49949;BME280;35840;45.982;8.890;2024-01-30T09:29:33;100298.31;;;2.34;76.90
49949;BME280;35840;45.982;8.890;2024-01-30T09:32:04;100301.69;;;2.33;77.17
49949;BME280;35840;45.982;8.890;2024-01-30T09:34:32;100291.53;;;2.30;77.26
49949;BME280;35840;45.982;8.890;2024-01-30T09:36:59;100308.56;;;2.48;76.76
49949;BME280;35840;45.982;8.890;2024-01-30T09:39:27;100306.88;;;2.56;77.48
49949;BME280;35840;45.982;8.890;2024-01-30T09:42:20;100310.28;;;2.58;76.99
49949;BME280;35840;45.982;8.890;2024-01-30T09:44:51;100306.91;;;2.60;77.01
49949;BME280;35840;45.982;8.890;2024-01-30T09:47:19;100311.97;;;2.63;76.46
49949;BME280;35840;45.982;8.890;2024-01-30T09:49:46;100307.75;;;2.69;74.66
49949;BME280;35840;45.982;8.890;2024-01-30T09:52:14;100306.09;;;2.71;74.34
49949;BME280;35840;45.982;8.890;2024-01-30T09:54:42;100300.16;;;2.71;73.76
49949;BME280;35840;45.982;8.890;2024-01-30T09:57:11;100309.47;;;2.73;73.82
49949;BME280;35840;45.982;8.890;2024-01-30T09:59:38;100292.50;;;2.60;73.21
49949;BME280;35840;45.982;8.890;2024-01-30T10:02:05;100304.38;;;2.75;72.78
49949;BME280;35840;45.982;8.890;2024-01-30T10:04:33;100308.63;;;2.78;72.46
49949;BME280;35840;45.982;8.890;2024-01-30T10:07:02;100296.78;;;2.78;72.22
49949;BME280;35840;45.982;8.890;2024-01-30T10:09:32;100309.50;;;2.90;72.78
49949;BME280;35840;45.982;8.890;2024-01-30T10:12:01;100297.72;;;3.14;73.58
49949;BME280;35840;45.982;8.890;2024-01-30T10:14:27;100304.50;;;3.29;72.64
49949;BME280;35840;45.982;8.890;2024-01-30T10:16:55;100296.88;;;3.27;70.97
49949;BME280;35840;45.982;8.890;2024-01-30T10:19:22;100297.72;;;3.30;70.69
49949;BME280;35840;45.982;8.890;2024-01-30T10:21:49;100291.78;;;3.40;70.79
49949;BME280;35840;45.982;8.890;2024-01-30T10:24:16;100294.34;;;3.40;69.84
49949;BME280;35840;45.982;8.890;2024-01-30T10:26:44;100292.66;;;3.45;69.89
49949;BME280;35840;45.982;8.890;2024-01-30T10:29:11;100290.97;;;3.52;69.37
49949;BME280;35840;45.982;8.890;2024-01-30T10:31:37;100288.41;;;3.52;69.37
49949;BME280;35840;45.982;8.890;2024-01-30T10:34:04;100290.09;;;3.64;68.10
49949;BME280;35840;45.982;8.890;2024-01-30T10:36:46;100287.53;;;3.67;68.51
49949;BME280;35840;45.982;8.890;2024-01-30T10:39:17;100279.91;;;3.82;69.37
49949;BME280;35840;45.982;8.890;2024-01-30T10:41:44;100277.34;;;3.90;70.37
49949;BME280;35840;45.982;8.890;2024-01-30T10:44:13;100268.81;;;4.14;71.38
49949;BME280;35840;45.982;8.890;2024-01-30T10:46:51;100270.47;;;4.20;71.47
49949;BME280;35840;45.982;8.890;2024-01-30T10:49:21;100263.69;;;4.17;70.55
49949;BME280;35840;45.982;8.890;2024-01-30T10:51:50;100270.41;;;4.30;69.93
49949;BME280;35840;45.982;8.890;2024-01-30T10:54:19;100262.75;;;4.43;70.37
49949;BME280;35840;45.982;8.890;2024-01-30T10:56:47;100252.56;;;4.43;69.86
49949;BME280;35840;45.982;8.890;2024-01-30T10:59:15;100257.59;;;4.55;69.29
49949;BME280;35840;45.982;8.890;2024-01-30T11:01:42;100247.41;;;4.52;68.23
49949;BME280;35840;45.982;8.890;2024-01-30T11:04:09;100248.19;;;4.62;67.65
49949;BME280;35840;45.982;8.890;2024-01-30T11:06:43;100226.19;;;4.50;67.38
49949;BME280;35840;45.982;8.890;2024-01-30T11:09:11;100261.72;;;4.78;67.27
49949;BME280;35840;45.982;8.890;2024-01-30T11:11:55;100230.19;;;4.93;65.32
49949;BME280;35840;45.982;8.890;2024-01-30T11:14:27;100238.56;;;5.12;67.32
49949;BME280;35840;45.982;8.890;2024-01-30T11:16:59;100241.91;;;5.15;65.23
49949;BME280;35840;45.982;8.890;2024-01-30T11:19:26;100239.41;;;5.11;64.89
49949;BME280;35840;45.982;8.890;2024-01-30T11:21:54;100236.72;;;5.28;65.35
49949;BME280;35840;45.982;8.890;2024-01-30T11:24:24;100224.63;;;5.47;63.20
49949;BME280;35840;45.982;8.890;2024-01-30T11:26:58;100234.66;;;5.68;62.07
49949;BME280;35840;45.982;8.890;2024-01-30T11:29:28;100228.59;;;5.79;61.93
49949;BME280;35840;45.982;8.890;2024-01-30T11:31:58;100223.44;;;5.82;61.55
49949;BME280;35840;45.982;8.890;2024-01-30T11:34:26;100222.72;;;5.69;61.22
49949;BME280;35840;45.982;8.890;2024-01-30T11:36:57;100210.78;;;5.71;61.56
49949;BME280;35840;45.982;8.890;2024-01-30T11:39:31;100214.16;;;5.75;60.36
49949;BME280;35840;45.982;8.890;2024-01-30T11:41:59;100203.09;;;5.76;60.55
49949;BME280;35840;45.982;8.890;2024-01-30T11:44:26;100202.19;;;5.78;60.38
49949;BME280;35840;45.982;8.890;2024-01-30T11:46:53;100193.66;;;5.81;60.31
49949;BME280;35840;45.982;8.890;2024-01-30T11:49:20;100197.09;;;5.81;60.01
49949;BME280;35840;45.982;8.890;2024-01-30T11:51:48;100194.53;;;5.81;60.62
49949;BME280;35840;45.982;8.890;2024-01-30T11:54:16;100191.78;;;5.95;60.33
49949;BME280;35840;45.982;8.890;2024-01-30T11:56:43;100186.50;;;6.12;58.56
49949;BME280;35840;45.982;8.890;2024-01-30T11:59:10;100180.34;;;6.30;59.57
49949;BME280;35840;45.982;8.890;2024-01-30T12:01:37;100159.09;;;6.28;59.36
49949;BME280;35840;45.982;8.890;2024-01-30T12:04:04;100170.75;;;6.48;59.10
49949;BME280;35840;45.982;8.890;2024-01-30T12:06:36;100179.97;;;6.58;57.56
49949;BME280;35840;45.982;8.890;2024-01-30T12:09:04;100166.41;;;6.53;57.94
49949;BME280;35840;45.982;8.890;2024-01-30T12:11:31;100162.84;;;6.62;58.16
49949;BME280;35840;45.982;8.890;2024-01-30T12:13:58;100157.84;;;6.55;56.85
49949;BME280;35840;45.982;8.890;2024-01-30T12:16:25;100162.13;;;6.55;58.09
49949;BME280;35840;45.982;8.890;2024-01-30T12:18:59;100155.03;;;6.72;58.13
49949;BME280;35840;45.982;8.890;2024-01-30T12:21:29;100154.19;;;6.70;56.25
49949;BME280;35840;45.982;8.890;2024-01-30T12:23:57;100146.44;;;6.77;57.46
49949;BME280;35840;45.982;8.890;2024-01-30T12:26:24;100133.69;;;6.75;56.95
49949;BME280;35840;45.982;8.890;2024-01-30T12:28:55;100137.22;;;6.68;57.56
49949;BME280;35840;45.982;8.890;2024-01-30T12:31:26;100138.13;;;6.64;57.75
49949;BME280;35840;45.982;8.890;2024-01-30T12:33:54;100130.38;;;6.68;57.88
49949;BME280;35840;45.982;8.890;2024-01-30T12:36:25;100118.47;;;6.67;57.76
49949;BME280;35840;45.982;8.890;2024-01-30T12:38:52;100115.25;;;6.56;57.91
49949;BME280;35840;45.982;8.890;2024-01-30T12:41:20;100119.50;;;6.55;57.85
49949;BME280;35840;45.982;8.890;2024-01-30T12:43:47;100112.69;;;6.56;56.61
49949;BME280;35840;45.982;8.890;2024-01-30T12:46:17;100117.88;;;6.51;56.97
49949;BME280;35840;45.982;8.890;2024-01-30T12:48:44;100105.06;;;6.53;56.82
49949;BME280;35840;45.982;8.890;2024-01-30T12:51:11;100110.91;;;6.61;56.85
49949;BME280;35840;45.982;8.890;2024-01-30T12:53:38;100105.72;;;6.66;56.42
49949;BME280;35840;45.982;8.890;2024-01-30T12:56:05;100101.34;;;6.72;56.68
49949;BME280;35840;45.982;8.890;2024-01-30T12:58:32;100095.13;;;6.89;57.69
49949;BME280;35840;45.982;8.890;2024-01-30T13:00:59;100087.50;;;6.84;57.17